sensor_id;sensor_type;location;lat;lon;timestamp;temperature;humidity
53675;DHT22;39574;50.534;8.500;2022-11-15T00:02:46;9.8;99.9
53675;DHT22;39574;50.534;8.500;2022-11-15T00:07:56;10.1;99.9
53675;DHT22;39574;50.534;8.500;2022-11-15T00:13:10;10.3;99.9
53675;DHT22;39574;50.534;8.500;2022-11-15T00:18:13;10.5;99.9
53675;DHT22;39574;50.534;8.500;2022-11-15T00:27:23;10.6;99.9
53675;DHT22;39574;50.534;8.500;2022-11-15T00:32:39;10.7;99.9
53675;DHT22;39574;50.534;8.500;2022-11-15T00:37:50;10.8;99.9
53675;DHT22;39574;50.534;8.500;2022-11-15T00:43:03;10.8;99.9
53675;DHT22;39574;50.534;8.500;2022-11-15T00:48:04;10.9;99.9
53675;DHT22;39574;50.534;8.500;2022-11-15T00:53:04;10.9;99.9
53675;DHT22;39574;50.534;8.500;2022-11-15T00:58:05;10.9;99.9
53675;DHT22;39574;50.534;8.500;2022-11-15T01:07:15;10.9;99.9
53675;DHT22;39574;50.534;8.500;2022-11-15T01:12:31;10.8;99.9
53675;DHT22;39574;50.534;8.500;2022-11-15T01:17:32;10.7;99.9
53675;DHT22;39574;50.534;8.500;2022-11-15T01:22:45;10.6;99.9
53675;DHT22;39574;50.534;8.500;2022-11-15T01:27:58;10.4;99.9
53675;DHT22;39574;50.534;8.500;2022-11-15T01:37:31;10.2;99.9
53675;DHT22;39574;50.534;8.500;2022-11-15T01:42:41;10.0;99.9
53675;DHT22;39574;50.534;8.500;2022-11-15T01:52:13;10.0;99.9
53675;DHT22;39574;50.534;8.500;2022-11-15T01:57:35;9.9;99.9
53675;DHT22;39574;50.534;8.500;2022-11-15T02:02:48;9.9;99.9
53675;DHT22;39574;50.534;8.500;2022-11-15T02:07:50;9.9;99.9
53675;DHT22;39574;50.534;8.500;2022-11-15T02:17:25;9.9;99.9
53675;DHT22;39574;50.534;8.500;2022-11-15T02:22:33;9.9;99.9
53675;DHT22;39574;50.534;8.500;2022-11-15T02:27:52;9.9;99.9
53675;DHT22;39574;50.534;8.500;2022-11-15T02:37:16;10.0;99.9
53675;DHT22;39574;50.534;8.500;2022-11-15T02:42:24;10.0;99.9
53675;DHT22;39574;50.534;8.500;2022-11-15T02:47:25;9.9;99.9
53675;DHT22;39574;50.534;8.500;2022-11-15T02:52:38;9.9;99.9
53675;DHT22;39574;50.534;8.500;2022-11-15T02:57:42;9.9;99.9
53675;DHT22;39574;50.534;8.500;2022-11-15T03:07:07;9.9;99.9
53675;DHT22;39574;50.534;8.500;2022-11-15T03:12:23;10.0;99.9
53675;DHT22;39574;50.534;8.500;2022-11-15T03:17:34;9.9;99.9
53675;DHT22;39574;50.534;8.500;2022-11-15T03:27:17;9.9;99.9
53675;DHT22;39574;50.534;8.500;2022-11-15T03:32:32;9.9;99.9
53675;DHT22;39574;50.534;8.500;2022-11-15T03:46:55;10.0;99.9
53675;DHT22;39574;50.534;8.500;2022-11-15T03:51:59;10.0;99.9
53675;DHT22;39574;50.534;8.500;2022-11-15T03:57:11;10.1;99.9
53675;DHT22;39574;50.534;8.500;2022-11-15T04:02:22;10.2;99.9
53675;DHT22;39574;50.534;8.500;2022-11-15T04:11:54;10.5;99.9
53675;DHT22;39574;50.534;8.500;2022-11-15T04:17:02;10.7;99.9
53675;DHT22;39574;50.534;8.500;2022-11-15T04:22:08;10.9;99.9
53675;DHT22;39574;50.534;8.500;2022-11-15T04:27:18;11.0;99.9
53675;DHT22;39574;50.534;8.500;2022-11-15T04:32:20;11.1;99.9
53675;DHT22;39574;50.534;8.500;2022-11-15T04:42:01;11.1;99.9
53675;DHT22;39574;50.534;8.500;2022-11-15T04:47:14;11.1;99.9
53675;DHT22;39574;50.534;8.500;2022-11-15T05:01:31;11.1;99.9
53675;DHT22;39574;50.534;8.500;2022-11-15T05:06:41;11.1;99.9
53675;DHT22;39574;50.534;8.500;2022-11-15T05:11:44;11.1;99.9
53675;DHT22;39574;50.534;8.500;2022-11-15T05:16:56;11.1;99.9
53675;DHT22;39574;50.534;8.500;2022-11-15T05:22:06;11.0;99.9
53675;DHT22;39574;50.534;8.500;2022-11-15T05:27:06;10.9;99.9
53675;DHT22;39574;50.534;8.500;2022-11-15T05:36:21;10.8;99.9
53675;DHT22;39574;50.534;8.500;2022-11-15T05:41:37;10.7;99.9
53675;DHT22;39574;50.534;8.500;2022-11-15T05:46:48;10.5;99.9
53675;DHT22;39574;50.534;8.500;2022-11-15T05:52:00;10.4;99.9
53675;DHT22;39574;50.534;8.500;2022-11-15T05:57:02;10.3;99.9
53675;DHT22;39574;50.534;8.500;2022-11-15T06:06:29;10.2;99.9
53675;DHT22;39574;50.534;8.500;2022-11-15T06:11:32;10.2;99.9
53675;DHT22;39574;50.534;8.500;2022-11-15T06:16:44;10.2;99.9
53675;DHT22;39574;50.534;8.500;2022-11-15T06:21:58;10.2;99.9
53675;DHT22;39574;50.534;8.500;2022-11-15T06:31:39;10.1;99.9
53675;DHT22;39574;50.534;8.500;2022-11-15T06:36:50;10.1;99.9
53675;DHT22;39574;50.534;8.500;2022-11-15T06:46:04;10.0;99.9
53675;DHT22;39574;50.534;8.500;2022-11-15T06:51:38;10.0;99.9
53675;DHT22;39574;50.534;8.500;2022-11-15T06:56:46;10.1;99.9
53675;DHT22;39574;50.534;8.500;2022-11-15T07:01:49;10.1;99.9
53675;DHT22;39574;50.534;8.500;2022-11-15T07:11:08;10.1;99.9
53675;DHT22;39574;50.534;8.500;2022-11-15T07:16:17;10.0;99.9
53675;DHT22;39574;50.534;8.500;2022-11-15T07:21:30;10.0;99.9
53675;DHT22;39574;50.534;8.500;2022-11-15T07:26:43;10.0;99.9
53675;DHT22;39574;50.534;8.500;2022-11-15T07:36:07;10.1;99.9
53675;DHT22;39574;50.534;8.500;2022-11-15T07:41:13;10.1;99.9
53675;DHT22;39574;50.534;8.500;2022-11-15T07:46:24;10.2;99.9
53675;DHT22;39574;50.534;8.500;2022-11-15T07:51:33;10.4;99.9
53675;DHT22;39574;50.534;8.500;2022-11-15T07:56:38;10.5;99.9
53675;DHT22;39574;50.534;8.500;2022-11-15T08:05:50;10.6;99.9
53675;DHT22;39574;50.534;8.500;2022-11-15T08:11:32;10.7;99.9
53675;DHT22;39574;50.534;8.500;2022-11-15T08:21:17;10.7;99.9
53675;DHT22;39574;50.534;8.500;2022-11-15T08:26:32;10.7;99.9
53675;DHT22;39574;50.534;8.500;2022-11-15T08:36:13;10.7;99.9
53675;DHT22;39574;50.534;8.500;2022-11-15T08:41:29;10.8;99.9
53675;DHT22;39574;50.534;8.500;2022-11-15T08:50:53;10.9;99.9
53675;DHT22;39574;50.534;8.500;2022-11-15T08:55:55;10.8;99.9
53675;DHT22;39574;50.534;8.500;2022-11-15T09:00:56;10.9;99.9
53675;DHT22;39574;50.534;8.500;2022-11-15T09:06:04;11.0;99.9
53675;DHT22;39574;50.534;8.500;2022-11-15T09:11:19;11.1;99.9
53675;DHT22;39574;50.534;8.500;2022-11-15T09:20:54;11.2;99.9
53675;DHT22;39574;50.534;8.500;2022-11-15T09:30:49;11.4;99.9
53675;DHT22;39574;50.534;8.500;2022-11-15T09:35:49;11.6;99.9
53675;DHT22;39574;50.534;8.500;2022-11-15T09:41:14;11.9;99.9
53675;DHT22;39574;50.534;8.500;2022-11-15T09:46:15;12.3;99.9
53675;DHT22;39574;50.534;8.500;2022-11-15T09:55:43;12.6;99.9
53675;DHT22;39574;50.534;8.500;2022-11-15T10:00:44;12.7;99.9
53675;DHT22;39574;50.534;8.500;2022-11-15T10:06:00;12.7;99.9
53675;DHT22;39574;50.534;8.500;2022-11-15T10:11:10;12.6;99.9
53675;DHT22;39574;50.534;8.500;2022-11-15T10:20:46;12.5;99.9
53675;DHT22;39574;50.534;8.500;2022-11-15T10:25:51;12.6;99.9
53675;DHT22;39574;50.534;8.500;2022-11-15T10:31:02;12.6;99.9
53675;DHT22;39574;50.534;8.500;2022-11-15T10:36:21;12.6;99.9
53675;DHT22;39574;50.534;8.500;2022-11-15T10:41:07;12.5;99.9
53675;DHT22;39574;50.534;8.500;2022-11-15T10:50:33;12.6;99.9
53675;DHT22;39574;50.534;8.500;2022-11-15T10:55:33;12.7;99.9
53675;DHT22;39574;50.534;8.500;2022-11-15T11:00:38;12.8;99.9
53675;DHT22;39574;50.534;8.500;2022-11-15T11:05:45;12.9;99.9
53675;DHT22;39574;50.534;8.500;2022-11-15T11:10:51;13.0;99.9
53675;DHT22;39574;50.534;8.500;2022-11-15T11:20:16;13.2;99.9
53675;DHT22;39574;50.534;8.500;2022-11-15T11:25:33;13.3;99.9
53675;DHT22;39574;50.534;8.500;2022-11-15T11:30:43;13.5;99.9
53675;DHT22;39574;50.534;8.500;2022-11-15T11:35:59;13.6;99.9
53675;DHT22;39574;50.534;8.500;2022-11-15T11:45:15;13.7;99.9
53675;DHT22;39574;50.534;8.500;2022-11-15T11:50:24;13.8;99.9
53675;DHT22;39574;50.534;8.500;2022-11-15T11:55:32;13.9;99.9
53675;DHT22;39574;50.534;8.500;2022-11-15T12:00:38;14.1;99.9
53675;DHT22;39574;50.534;8.500;2022-11-15T12:05:37;14.2;99.9
53675;DHT22;39574;50.534;8.500;2022-11-15T12:10:45;14.2;99.9
53675;DHT22;39574;50.534;8.500;2022-11-15T12:15:45;14.1;99.9
53675;DHT22;39574;50.534;8.500;2022-11-15T12:25:07;14.0;99.9
53675;DHT22;39574;50.534;8.500;2022-11-15T12:30:16;13.9;99.9
53675;DHT22;39574;50.534;8.500;2022-11-15T12:35:21;13.9;99.9
53675;DHT22;39574;50.534;8.500;2022-11-15T12:40:29;13.9;99.9
53675;DHT22;39574;50.534;8.500;2022-11-15T12:49:55;13.8;99.9
53675;DHT22;39574;50.534;8.500;2022-11-15T12:55:29;13.7;99.9
53675;DHT22;39574;50.534;8.500;2022-11-15T13:00:37;13.7;99.9
53675;DHT22;39574;50.534;8.500;2022-11-15T13:06:06;13.7;99.9
53675;DHT22;39574;50.534;8.500;2022-11-15T13:10:38;13.6;99.9
53675;DHT22;39574;50.534;8.500;2022-11-15T13:20:19;13.6;99.9
53675;DHT22;39574;50.534;8.500;2022-11-15T13:25:15;13.6;99.9
53675;DHT22;39574;50.534;8.500;2022-11-15T13:30:19;13.5;99.9
53675;DHT22;39574;50.534;8.500;2022-11-15T13:35:19;13.5;99.9
53675;DHT22;39574;50.534;8.500;2022-11-15T13:40:33;13.5;99.9
53675;DHT22;39574;50.534;8.500;2022-11-15T13:50:10;13.5;99.9
53675;DHT22;39574;50.534;8.500;2022-11-15T13:55:16;13.4;99.9
53675;DHT22;39574;50.534;8.500;2022-11-15T14:05:27;13.4;99.9
53675;DHT22;39574;50.534;8.500;2022-11-15T14:14:58;13.3;99.9
53675;DHT22;39574;50.534;8.500;2022-11-15T14:20:27;13.3;99.9
53675;DHT22;39574;50.534;8.500;2022-11-15T14:29:43;13.2;99.9
53675;DHT22;39574;50.534;8.500;2022-11-15T14:34:47;13.2;99.9
53675;DHT22;39574;50.534;8.500;2022-11-15T14:39:59;13.2;99.9
53675;DHT22;39574;50.534;8.500;2022-11-15T14:45:07;13.1;99.9
53675;DHT22;39574;50.534;8.500;2022-11-15T14:50:15;13.0;99.9
53675;DHT22;39574;50.534;8.500;2022-11-15T15:00:11;12.9;99.9
53675;DHT22;39574;50.534;8.500;2022-11-15T15:05:18;12.8;99.9
53675;DHT22;39574;50.534;8.500;2022-11-15T15:14:53;12.7;99.9
53675;DHT22;39574;50.534;8.500;2022-11-15T15:19:58;12.6;99.9
53675;DHT22;39574;50.534;8.500;2022-11-15T15:25:20;12.5;99.9
53675;DHT22;39574;50.534;8.500;2022-11-15T15:34:54;12.4;99.9
53675;DHT22;39574;50.534;8.500;2022-11-15T15:39:56;12.4;99.9
53675;DHT22;39574;50.534;8.500;2022-11-15T15:45:10;12.3;99.9
53675;DHT22;39574;50.534;8.500;2022-11-15T15:54:38;12.2;99.9
53675;DHT22;39574;50.534;8.500;2022-11-15T15:59:41;12.2;99.9
53675;DHT22;39574;50.534;8.500;2022-11-15T16:04:46;12.2;99.9
53675;DHT22;39574;50.534;8.500;2022-11-15T16:19:15;12.1;99.9
53675;DHT22;39574;50.534;8.500;2022-11-15T16:24:42;12.1;99.9
53675;DHT22;39574;50.534;8.500;2022-11-15T16:29:42;12.1;99.9
53675;DHT22;39574;50.534;8.500;2022-11-15T16:34:42;12.1;99.9
53675;DHT22;39574;50.534;8.500;2022-11-15T16:39:55;12.0;99.9
53675;DHT22;39574;50.534;8.500;2022-11-15T16:49:29;12.1;99.9
53675;DHT22;39574;50.534;8.500;2022-11-15T16:54:30;12.1;99.9
53675;DHT22;39574;50.534;8.500;2022-11-15T16:59:36;12.1;99.9
53675;DHT22;39574;50.534;8.500;2022-11-15T17:04:50;12.1;99.9
53675;DHT22;39574;50.534;8.500;2022-11-15T17:09:54;12.1;99.9
53675;DHT22;39574;50.534;8.500;2022-11-15T17:19:25;12.1;99.9
53675;DHT22;39574;50.534;8.500;2022-11-15T17:24:33;12.1;99.9
53675;DHT22;39574;50.534;8.500;2022-11-15T17:39:11;12.0;99.9
53675;DHT22;39574;50.534;8.500;2022-11-15T17:44:19;11.9;99.9
53675;DHT22;39574;50.534;8.500;2022-11-15T18:04:03;11.9;99.9
53675;DHT22;39574;50.534;8.500;2022-11-15T18:09:20;11.9;99.9
53675;DHT22;39574;50.534;8.500;2022-11-15T18:14:21;11.9;99.9
53675;DHT22;39574;50.534;8.500;2022-11-15T18:19:22;11.9;99.9
53675;DHT22;39574;50.534;8.500;2022-11-15T18:24:25;11.9;99.9
53675;DHT22;39574;50.534;8.500;2022-11-15T18:29:38;11.9;99.9
53675;DHT22;39574;50.534;8.500;2022-11-15T18:39:18;11.9;99.9
53675;DHT22;39574;50.534;8.500;2022-11-15T18:44:32;11.9;99.9
53675;DHT22;39574;50.534;8.500;2022-11-15T18:54:02;11.9;99.9
53675;DHT22;39574;50.534;8.500;2022-11-15T18:59:04;11.9;99.9
53675;DHT22;39574;50.534;8.500;2022-11-15T19:04:11;11.9;99.9
53675;DHT22;39574;50.534;8.500;2022-11-15T19:09:15;11.9;99.9
53675;DHT22;39574;50.534;8.500;2022-11-15T19:14:27;11.9;99.9
53675;DHT22;39574;50.534;8.500;2022-11-15T19:24:10;11.9;99.9
53675;DHT22;39574;50.534;8.500;2022-11-15T19:29:23;11.9;99.9
53675;DHT22;39574;50.534;8.500;2022-11-15T19:34:23;11.9;99.9
53675;DHT22;39574;50.534;8.500;2022-11-15T19:43:51;11.9;99.9
53675;DHT22;39574;50.534;8.500;2022-11-15T19:49:02;11.9;99.9
53675;DHT22;39574;50.534;8.500;2022-11-15T19:54:06;11.8;99.9
53675;DHT22;39574;50.534;8.500;2022-11-15T19:59:15;11.8;99.9
53675;DHT22;39574;50.534;8.500;2022-11-15T20:04:16;11.8;99.9
53675;DHT22;39574;50.534;8.500;2022-11-15T20:09:18;11.8;99.9
53675;DHT22;39574;50.534;8.500;2022-11-15T20:18:45;11.7;99.9
53675;DHT22;39574;50.534;8.500;2022-11-15T20:23:46;11.6;99.9
53675;DHT22;39574;50.534;8.500;2022-11-15T20:28:58;11.5;99.9
53675;DHT22;39574;50.534;8.500;2022-11-15T20:34:10;11.6;99.9
53675;DHT22;39574;50.534;8.500;2022-11-15T20:43:44;11.6;99.9
53675;DHT22;39574;50.534;8.500;2022-11-15T20:48:55;11.7;99.9
53675;DHT22;39574;50.534;8.500;2022-11-15T20:54:07;11.6;99.9
53675;DHT22;39574;50.534;8.500;2022-11-15T20:59:07;11.7;99.9
53675;DHT22;39574;50.534;8.500;2022-11-15T21:08:40;11.6;99.9
53675;DHT22;39574;50.534;8.500;2022-11-15T21:13:50;11.6;99.9
53675;DHT22;39574;50.534;8.500;2022-11-15T21:19:03;11.6;99.9
53675;DHT22;39574;50.534;8.500;2022-11-15T21:28:33;11.6;99.9
53675;DHT22;39574;50.534;8.500;2022-11-15T21:33:45;11.5;99.9
53675;DHT22;39574;50.534;8.500;2022-11-15T21:38:55;11.4;99.9
53675;DHT22;39574;50.534;8.500;2022-11-15T21:48:29;11.4;99.9
53675;DHT22;39574;50.534;8.500;2022-11-15T21:53:29;11.3;99.9
53675;DHT22;39574;50.534;8.500;2022-11-15T21:58:40;11.3;99.9
53675;DHT22;39574;50.534;8.500;2022-11-15T22:03:53;11.3;99.9
53675;DHT22;39574;50.534;8.500;2022-11-15T22:13:12;11.3;99.9
53675;DHT22;39574;50.534;8.500;2022-11-15T22:18:22;11.3;99.9
53675;DHT22;39574;50.534;8.500;2022-11-15T22:23:33;11.3;99.9
53675;DHT22;39574;50.534;8.500;2022-11-15T22:28:42;11.3;99.9
53675;DHT22;39574;50.534;8.500;2022-11-15T22:33:45;11.3;99.9
53675;DHT22;39574;50.534;8.500;2022-11-15T22:43:34;11.3;99.9
53675;DHT22;39574;50.534;8.500;2022-11-15T22:48:42;11.3;99.9
53675;DHT22;39574;50.534;8.500;2022-11-15T22:53:44;11.3;99.9
53675;DHT22;39574;50.534;8.500;2022-11-15T22:58:46;11.4;99.9
53675;DHT22;39574;50.534;8.500;2022-11-15T23:08:26;11.3;99.9
53675;DHT22;39574;50.534;8.500;2022-11-15T23:13:38;11.3;99.9
53675;DHT22;39574;50.534;8.500;2022-11-15T23:23:05;11.3;99.9
53675;DHT22;39574;50.534;8.500;2022-11-15T23:28:12;11.3;99.9
53675;DHT22;39574;50.534;8.500;2022-11-15T23:33:29;11.3;99.9
53675;DHT22;39574;50.534;8.500;2022-11-15T23:38:32;11.3;99.9
53675;DHT22;39574;50.534;8.500;2022-11-15T23:43:37;11.3;99.9
53675;DHT22;39574;50.534;8.500;2022-11-15T23:53:15;11.3;99.9
53675;DHT22;39574;50.534;8.500;2022-11-15T23:58:18;11.2;99.9
